createdAt,value
2023-04-10T00:00:09.361Z,18.2
2023-04-10T00:01:25.698Z,18.5
2023-04-10T00:02:41.953Z,17.9
2023-04-10T00:03:58.240Z,18.9
2023-04-10T00:05:14.578Z,19
2023-04-10T00:06:29.856Z,18.6
2023-04-10T00:07:46.142Z,19.1
2023-04-10T00:09:02.467Z,18.8
2023-04-10T00:10:18.779Z,18
2023-04-10T00:11:35.063Z,18.4
2023-04-10T00:12:51.315Z,18.4
2023-04-10T00:14:07.615Z,17.4
2023-04-10T00:15:23.908Z,17.4
2023-04-10T00:16:40.199Z,18.5
2023-04-10T00:17:56.534Z,18.1
2023-04-10T00:19:12.781Z,17.5
2023-04-10T00:20:29.113Z,17.5
2023-04-10T00:21:45.387Z,18.1
2023-04-10T00:23:00.683Z,17.1
2023-04-10T00:24:17.017Z,16.7
2023-04-10T00:25:33.270Z,17.8
2023-04-10T00:26:49.569Z,17.2
2023-04-10T00:28:05.864Z,17.9
2023-04-10T00:29:22.198Z,16.6
2023-04-10T00:30:38.455Z,18.2
2023-04-10T00:31:54.748Z,17.7
2023-04-10T00:33:11.040Z,18.4
2023-04-10T00:34:27.370Z,18.4
2023-04-10T00:35:43.672Z,18.1
2023-04-10T00:36:59.976Z,17.8
2023-04-10T00:38:16.223Z,17.4
2023-04-10T00:39:31.534Z,17.7
2023-04-10T00:40:47.856Z,17.6
2023-04-10T00:42:04.159Z,17.4
2023-04-10T00:43:20.448Z,18
2023-04-10T00:44:36.741Z,17.2
2023-04-10T00:45:52.999Z,17.2
2023-04-10T00:47:09.329Z,17.1
2023-04-10T00:48:25.629Z,16.8
2023-04-10T00:49:41.879Z,17
2023-04-10T00:50:58.174Z,15.8
2023-04-10T00:52:14.476Z,15.4
2023-04-10T00:53:30.815Z,14.2
2023-04-10T00:54:47.064Z,14.6
2023-04-10T00:56:02.374Z,15.6
2023-04-10T00:57:18.664Z,15.7
2023-04-10T00:58:34.957Z,16.4
2023-04-10T00:59:51.306Z,17.6
2023-04-10T01:01:07.548Z,18.1
2023-04-10T01:02:23.838Z,19
2023-04-10T01:03:40.175Z,19
2023-04-10T01:04:56.437Z,19.5
2023-04-10T01:06:12.736Z,19.8
2023-04-10T01:07:29.015Z,19.3
2023-04-10T01:08:45.312Z,18.9
2023-04-10T01:10:01.609Z,19.4
2023-04-10T01:11:17.948Z,19.3
2023-04-10T01:12:33.210Z,19.5
2023-04-10T01:13:49.549Z,19.4
2023-04-10T01:15:05.845Z,19.2
2023-04-10T01:16:22.092Z,19.1
2023-04-10T01:17:38.426Z,18.1
2023-04-10T01:18:54.682Z,18
2023-04-10T01:20:11.028Z,19.3
2023-04-10T01:21:27.280Z,19.3
2023-04-10T01:22:43.570Z,18.6
2023-04-10T01:23:59.878Z,17.3
2023-04-10T01:25:16.162Z,16.9
2023-04-10T01:26:32.447Z,18.1
2023-04-10T01:27:48.790Z,17.7
2023-04-10T01:29:04.055Z,18.1
2023-04-10T01:30:20.385Z,18.4
2023-04-10T01:31:36.647Z,18.3
2023-04-10T01:32:52.939Z,18.7
2023-04-10T01:34:09.281Z,18
2023-04-10T01:35:25.528Z,18.4
2023-04-10T01:36:41.826Z,19.3
2023-04-10T01:37:58.120Z,18.4
2023-04-10T01:39:14.426Z,19
2023-04-10T01:40:30.707Z,18.3
2023-04-10T01:41:47.050Z,18.7
2023-04-10T01:43:03.341Z,18.8
2023-04-10T01:44:19.591Z,19.8
2023-04-10T01:45:34.941Z,19.2
2023-04-10T01:46:51.195Z,18.6
2023-04-10T01:48:07.522Z,19
2023-04-10T01:49:23.790Z,18.5
2023-04-10T01:50:40.073Z,18.2
2023-04-10T01:51:56.419Z,18.6
2023-04-10T01:53:11.724Z,18.7
2023-04-10T01:54:27.993Z,19.1
2023-04-10T01:55:44.284Z,18.8
2023-04-10T01:57:00.570Z,18.7
2023-04-10T01:58:16.897Z,18.9
2023-04-10T01:59:33.156Z,18.2
2023-04-10T02:00:49.467Z,19.1
2023-04-10T02:02:05.753Z,18.3
2023-04-10T02:03:22.089Z,17.6
2023-04-10T02:04:38.371Z,18.7
2023-04-10T02:05:54.676Z,19
2023-04-10T02:07:10.924Z,18.8
2023-04-10T02:08:27.220Z,18.2
2023-04-10T02:09:42.544Z,18.8
2023-04-10T02:10:58.841Z,19.3
2023-04-10T02:12:15.129Z,18.5
2023-04-10T02:13:31.429Z,18.6
2023-04-10T02:14:47.708Z,18
2023-04-10T02:16:03.998Z,18.8
2023-04-10T02:17:20.307Z,18.9
2023-04-10T02:18:36.599Z,18.1
2023-04-10T02:19:52.890Z,18.4
2023-04-10T02:21:09.196Z,18.4
2023-04-10T02:22:25.483Z,18.5
2023-04-10T02:23:41.780Z,17.9
2023-04-10T02:24:58.071Z,18.4
2023-04-10T02:26:13.375Z,18.4
2023-04-10T02:27:29.663Z,18.7
2023-04-10T02:28:45.964Z,18.2
2023-04-10T02:30:02.268Z,18.1
2023-04-10T02:31:18.546Z,18
2023-04-10T02:32:34.849Z,18.3
2023-04-10T02:33:51.146Z,18.2
2023-04-10T02:35:07.439Z,18.3
2023-04-10T02:36:23.734Z,18.1
2023-04-10T02:37:40.020Z,18
2023-04-10T02:38:56.318Z,18
2023-04-10T02:40:12.617Z,18.4
2023-04-10T02:41:28.909Z,18.1
2023-04-10T02:42:44.219Z,18.3
2023-04-10T02:44:00.528Z,17.4
2023-04-10T02:45:16.809Z,17.5
2023-04-10T02:46:33.107Z,19.1
2023-04-10T02:47:49.402Z,17.3
2023-04-10T02:49:05.690Z,18.4
2023-04-10T02:50:21.981Z,17.6
2023-04-10T02:51:38.276Z,17.8
2023-04-10T02:52:54.565Z,18.3
2023-04-10T02:54:10.871Z,17.6
2023-04-10T02:55:27.155Z,18.2
2023-04-10T02:56:43.448Z,18.7
2023-04-10T02:57:59.750Z,17.8
2023-04-10T02:59:15.065Z,17.3
2023-04-10T03:00:31.359Z,17.7
2023-04-10T03:01:47.658Z,18
2023-04-10T03:03:03.952Z,18.2
2023-04-10T03:04:20.245Z,18
2023-04-10T03:05:36.542Z,18
2023-04-10T03:06:52.843Z,18.5
2023-04-10T03:08:09.115Z,18.9
2023-04-10T03:09:25.421Z,19.2
2023-04-10T03:10:41.716Z,18
2023-04-10T03:11:58.007Z,17.6
2023-04-10T03:13:14.307Z,17.4
2023-04-10T03:14:30.606Z,16.7
2023-04-10T03:15:45.902Z,17.6
2023-04-10T03:17:02.205Z,17.6
2023-04-10T03:18:18.506Z,16.8
2023-04-10T03:19:34.788Z,17.8
2023-04-10T03:20:51.077Z,17.4
2023-04-10T03:22:07.384Z,17.4
2023-04-10T03:23:23.680Z,17.8
2023-04-10T03:24:39.978Z,17.2
2023-04-10T03:25:56.262Z,17.9
2023-04-10T03:27:12.558Z,17.6
2023-04-10T03:28:28.850Z,17.9
2023-04-10T03:29:45.147Z,17.7
2023-04-10T03:31:01.438Z,18.5
2023-04-10T03:32:16.756Z,17.7
2023-04-10T03:33:33.053Z,17.8
2023-04-10T03:34:49.343Z,17.8
2023-04-10T03:36:05.632Z,17.6
2023-04-10T03:37:21.935Z,18
2023-04-10T03:38:38.221Z,17.1
2023-04-10T03:39:54.516Z,17.7
2023-04-10T03:41:10.801Z,17.5
2023-04-10T03:42:27.101Z,17.5
2023-04-10T03:43:43.390Z,16.7
2023-04-10T03:44:59.698Z,16.8
2023-04-10T03:46:15.981Z,16.7
2023-04-10T03:47:32.282Z,16.9
2023-04-10T03:48:47.594Z,16.4
2023-04-10T03:50:03.884Z,16.8
2023-04-10T03:51:20.175Z,17.2
2023-04-10T03:52:36.431Z,16.7
2023-04-10T03:53:52.714Z,17.1
2023-04-10T03:55:09.017Z,17.5
2023-04-10T03:56:25.259Z,16.9
2023-04-10T03:57:41.497Z,17.6
2023-04-10T03:58:57.791Z,16.9
2023-04-10T04:00:14.050Z,17.8
2023-04-10T04:01:30.295Z,17.8
2023-04-10T04:02:46.522Z,17.5
2023-04-10T04:04:02.764Z,17.6
2023-04-10T04:05:18.037Z,17.6
2023-04-10T04:06:34.258Z,17.7
2023-04-10T04:07:50.509Z,17
2023-04-10T04:09:06.741Z,16.7
2023-04-10T04:10:22.990Z,16.4
2023-04-10T04:11:39.229Z,17.4
2023-04-10T04:12:55.470Z,16.8
2023-04-10T04:14:11.706Z,16
2023-04-10T04:15:27.963Z,16.9
2023-04-10T04:16:44.190Z,17.1
2023-04-10T04:18:00.441Z,16.9
2023-04-10T04:19:16.676Z,16.8
2023-04-10T04:20:32.910Z,16.8
2023-04-10T04:21:48.175Z,16.6
2023-04-10T04:23:04.400Z,16.6
2023-04-10T04:24:20.646Z,16.6
2023-04-10T04:25:36.888Z,17.1
2023-04-10T04:26:53.130Z,16.2
2023-04-10T04:28:09.371Z,16.9
2023-04-10T04:29:25.612Z,17.2
2023-04-10T04:30:41.850Z,17.3
2023-04-10T04:31:58.103Z,17.4
2023-04-10T04:33:14.345Z,18.4
2023-04-10T04:34:30.572Z,17.5
2023-04-10T04:35:46.822Z,17.6
2023-04-10T04:37:03.062Z,17.8
2023-04-10T04:38:18.309Z,17.4
2023-04-10T04:39:34.551Z,17.8
2023-04-10T04:40:50.797Z,17.4
2023-04-10T04:42:07.036Z,16.9
2023-04-10T04:43:23.266Z,17
2023-04-10T04:44:39.519Z,17.2
2023-04-10T04:45:55.761Z,17.6
2023-04-10T04:47:11.999Z,17
2023-04-10T04:48:28.241Z,17.8
2023-04-10T04:49:44.480Z,16.2
2023-04-10T04:51:00.000Z,16.6
2023-04-10T04:52:16.948Z,17
2023-04-10T04:53:33.205Z,17.3
2023-04-10T04:54:48.454Z,16.6
2023-04-10T04:56:04.703Z,16.9
2023-04-10T04:57:20.942Z,15.8
2023-04-10T04:58:37.183Z,16.5
2023-04-10T04:59:53.415Z,15.9
2023-04-10T05:01:09.651Z,15.5
2023-04-10T05:02:25.889Z,15.6
2023-04-10T05:03:42.130Z,14.8
2023-04-10T05:04:58.377Z,13.9
2023-04-10T05:06:14.617Z,14.6
2023-04-10T05:07:30.852Z,14.5
2023-04-10T05:08:47.092Z,15.3
2023-04-10T05:10:03.335Z,15
2023-04-10T05:11:18.599Z,15
2023-04-10T05:12:34.837Z,15.5
2023-04-10T05:13:51.068Z,16.4
2023-04-10T05:15:07.320Z,16.1
2023-04-10T05:16:23.550Z,15.7
2023-04-10T05:17:39.799Z,16.6
2023-04-10T05:18:56.040Z,16.2
2023-04-10T05:20:12.283Z,16.3
2023-04-10T05:21:28.528Z,16.8
2023-04-10T05:22:44.759Z,15.8
2023-04-10T05:24:01.005Z,15.6
2023-04-10T05:25:17.232Z,16.4
2023-04-10T05:26:33.482Z,15.7
2023-04-10T05:27:48.739Z,15.3
2023-04-10T05:29:04.988Z,15.5
2023-04-10T05:30:21.000Z,15.2
2023-04-10T05:31:37.452Z,16
2023-04-10T05:32:53.704Z,15.6
2023-04-10T05:34:09.931Z,15.4
2023-04-10T05:35:26.184Z,15.4
2023-04-10T05:36:42.422Z,14.8
2023-04-10T05:37:58.657Z,14.9
2023-04-10T05:39:14.901Z,14.4
2023-04-10T05:40:31.142Z,14.6
2023-04-10T05:41:47.399Z,14.3
2023-04-10T05:43:03.617Z,14.3
2023-04-10T05:44:18.884Z,15.3
2023-04-10T05:45:35.132Z,14.2
2023-04-10T05:46:51.377Z,14.4
2023-04-10T05:48:07.600Z,14.1
2023-04-10T05:49:23.833Z,14
2023-04-10T05:50:40.077Z,14.3
2023-04-10T05:51:56.327Z,14.5
2023-04-10T05:53:12.564Z,14.6
2023-04-10T05:54:28.819Z,14.1
2023-04-10T05:55:45.045Z,14.2
2023-04-10T05:57:01.297Z,14.2
2023-04-10T05:58:17.520Z,14
2023-04-10T05:59:33.760Z,13.8
2023-04-10T06:00:49.025Z,13.5
2023-04-10T06:02:05.259Z,14.2
2023-04-10T06:03:21.508Z,13.6
2023-04-10T06:04:37.749Z,13.4
2023-04-10T06:05:53.988Z,13.3
2023-04-10T06:07:10.234Z,14.2
2023-04-10T06:08:25.478Z,13
2023-04-10T06:09:41.724Z,13.8
2023-04-10T06:10:57.956Z,13.2
2023-04-10T06:12:14.195Z,13.1
2023-04-10T06:13:30.445Z,12.7
2023-04-10T06:14:46.678Z,13.5
2023-04-10T06:16:02.930Z,13
2023-04-10T06:17:19.175Z,12.4
2023-04-10T06:18:35.413Z,13.9
2023-04-10T06:19:51.643Z,13.7
2023-04-10T06:21:07.895Z,13.3
2023-04-10T06:22:24.118Z,12.8
2023-04-10T06:23:40.357Z,12.9
2023-04-10T06:24:55.629Z,13
2023-04-10T06:26:11.866Z,12.8
2023-04-10T06:27:28.103Z,12.7
2023-04-10T06:28:44.348Z,12.9
2023-04-10T06:30:00.581Z,12.9
2023-04-10T06:31:16.814Z,13
2023-04-10T06:32:33.072Z,12.5
2023-04-10T06:33:49.304Z,12.3
2023-04-10T06:35:05.538Z,12.7
2023-04-10T06:36:21.789Z,12.4
2023-04-10T06:37:38.030Z,12.5
2023-04-10T06:38:54.264Z,12.4
2023-04-10T06:40:10.507Z,12.3
2023-04-10T06:41:25.763Z,12.6
2023-04-10T06:42:41.994Z,12.1
2023-04-10T06:43:58.241Z,12.1
2023-04-10T06:45:14.484Z,12.8
2023-04-10T06:46:30.726Z,12.2
2023-04-10T06:47:46.971Z,12.4
2023-04-10T06:49:03.204Z,11.6
2023-04-10T06:50:19.450Z,12.8
2023-04-10T06:51:35.692Z,12.8
2023-04-10T06:52:51.918Z,12.2
2023-04-10T06:54:08.168Z,12
2023-04-10T06:55:24.407Z,12.3
2023-04-10T06:56:40.649Z,12.3
2023-04-10T06:57:55.894Z,12.3
2023-04-10T06:59:12.147Z,11.9
2023-04-10T07:00:28.000Z,12.1
2023-04-10T07:01:44.622Z,11.9
2023-04-10T07:03:00.864Z,12.1
2023-04-10T07:04:17.120Z,11.8
2023-04-10T07:05:33.349Z,12.1
2023-04-10T07:06:49.580Z,11.9
2023-04-10T07:08:05.820Z,11.7
2023-04-10T07:09:22.055Z,12
2023-04-10T07:10:38.303Z,11.9
2023-04-10T07:11:54.553Z,11.9
2023-04-10T07:13:10.784Z,12.1
2023-04-10T07:14:26.043Z,11.9
2023-04-10T07:15:42.285Z,12.6
2023-04-10T07:16:58.511Z,11.7
2023-04-10T07:18:14.755Z,12
2023-04-10T07:19:31.010Z,11.8
2023-04-10T07:20:47.248Z,12.9
2023-04-10T07:22:03.480Z,12.7
2023-04-10T07:23:19.726Z,12.9
2023-04-10T07:24:35.958Z,11.9
2023-04-10T07:25:52.204Z,12.7
2023-04-10T07:27:08.447Z,12.5
2023-04-10T07:28:24.674Z,12.7
2023-04-10T07:29:40.919Z,12.7
2023-04-10T07:30:56.175Z,12
2023-04-10T07:32:12.411Z,12.7
2023-04-10T07:33:28.648Z,12.6
2023-04-10T07:34:44.907Z,12.2
2023-04-10T07:36:01.127Z,12.1
2023-04-10T07:37:17.369Z,13.1
2023-04-10T07:38:33.617Z,12.6
2023-04-10T07:39:49.876Z,12.3
2023-04-10T07:41:06.114Z,12.2
2023-04-10T07:42:22.344Z,12.1
2023-04-10T07:43:38.587Z,13.2
2023-04-10T07:44:54.830Z,12.2
2023-04-10T07:46:11.065Z,12.9
2023-04-10T07:47:26.311Z,12.6
2023-04-10T07:48:42.552Z,12.4
2023-04-10T07:49:58.799Z,12.5
2023-04-10T07:51:15.033Z,13.2
2023-04-10T07:52:31.272Z,12.7
2023-04-10T07:53:47.514Z,13.5
2023-04-10T07:55:03.749Z,12.3
2023-04-10T07:56:20.007Z,12.2
2023-04-10T07:57:36.230Z,13
2023-04-10T07:58:52.478Z,12.6
2023-04-10T08:01:24.950Z,13.1
2023-04-10T08:02:41.192Z,13.3
2023-04-10T08:03:56.460Z,13.4
2023-04-10T08:05:12.686Z,12.7
2023-04-10T08:06:28.931Z,13.3
2023-04-10T08:07:45.177Z,12.6
2023-04-10T08:09:01.410Z,12.3
2023-04-10T08:10:17.644Z,12.6
2023-04-10T08:11:33.886Z,12
2023-04-10T08:12:50.137Z,12.3
2023-04-10T08:14:06.371Z,12.4
2023-04-10T08:15:22.621Z,12.5
2023-04-10T08:16:38.848Z,13.3
2023-04-10T08:17:55.087Z,12.6
2023-04-10T08:19:11.339Z,12.9
2023-04-10T08:20:26.583Z,12.6
2023-04-10T08:21:42.835Z,12.1
2023-04-10T08:22:59.063Z,12.2
2023-04-10T08:24:15.300Z,12
2023-04-10T08:25:31.556Z,12.7
2023-04-10T08:26:47.786Z,13.2
2023-04-10T08:28:04.022Z,12.8
2023-04-10T08:29:20.259Z,12.8
2023-04-10T08:30:36.514Z,12.4
2023-04-10T08:31:52.741Z,12.8
2023-04-10T08:33:08.978Z,13.1
2023-04-10T08:34:25.220Z,13
2023-04-10T08:35:41.459Z,12.9
2023-04-10T08:36:56.727Z,12.7
2023-04-10T08:38:12.957Z,13.1
2023-04-10T08:39:29.198Z,13.3
2023-04-10T08:40:45.434Z,12.8
2023-04-10T08:42:01.677Z,12.3
2023-04-10T08:43:17.917Z,13.2
2023-04-10T08:44:34.158Z,13.6
2023-04-10T08:45:50.393Z,13.4
2023-04-10T08:47:06.644Z,13
2023-04-10T08:48:22.883Z,13.1
2023-04-10T08:49:39.117Z,13.1
2023-04-10T08:50:55.361Z,12.9
2023-04-10T08:52:11.599Z,12.4
2023-04-10T08:53:26.854Z,13
2023-04-10T08:54:43.094Z,12.9
2023-04-10T08:55:59.342Z,12.5
2023-04-10T08:57:15.575Z,12.5
2023-04-10T08:58:31.808Z,13.3
2023-04-10T08:59:48.047Z,13.3
2023-04-10T09:01:04.292Z,13
2023-04-10T09:02:20.534Z,12.2
2023-04-10T09:03:36.766Z,12
2023-04-10T09:04:53.005Z,12.2
2023-04-10T09:06:09.261Z,12.7
2023-04-10T09:07:25.484Z,13.1
2023-04-10T09:08:41.741Z,12.6
2023-04-10T09:09:56.981Z,12.3
2023-04-10T09:11:13.220Z,12.2
2023-04-10T09:12:29.458Z,12.1
2023-04-10T09:13:45.706Z,12.3
2023-04-10T09:15:01.953Z,11.5
2023-04-10T09:16:18.179Z,12.5
2023-04-10T09:17:34.422Z,11.6
2023-04-10T09:18:50.661Z,11.8
2023-04-10T09:20:06.917Z,11.9
2023-04-10T09:21:23.150Z,11.2
2023-04-10T09:22:39.379Z,11.6
2023-04-10T09:23:55.630Z,11.6
2023-04-10T09:25:11.872Z,11.9
2023-04-10T09:26:27.117Z,11.7
2023-04-10T09:27:43.352Z,11.1
2023-04-10T09:28:59.592Z,10.8
2023-04-10T09:30:15.841Z,10.7
2023-04-10T09:31:32.080Z,10.9
2023-04-10T09:32:48.320Z,11.1
2023-04-10T09:34:04.556Z,10.7
2023-04-10T09:35:20.802Z,11.4
2023-04-10T09:36:37.037Z,10.8
2023-04-10T09:37:53.288Z,10.6
2023-04-10T09:39:09.529Z,10.4
2023-04-10T09:40:25.758Z,10.4
2023-04-10T09:41:42.002Z,10.4
2023-04-10T09:42:57.264Z,10.4
2023-04-10T09:44:13.495Z,10.5
2023-04-10T09:45:29.735Z,10.2
2023-04-10T09:46:45.980Z,9.5
2023-04-10T09:48:02.211Z,9.4
2023-04-10T09:49:18.450Z,9.6
2023-04-10T09:50:34.690Z,10.7
2023-04-10T09:51:50.926Z,10.8
2023-04-10T09:53:07.165Z,9.7
2023-04-10T09:54:23.408Z,10.1
2023-04-10T09:55:39.648Z,9.3
2023-04-10T09:56:55.885Z,9.6
2023-04-10T09:58:12.120Z,9.6
2023-04-10T09:59:27.379Z,9.8
2023-04-10T10:00:43.621Z,9.3
2023-04-10T10:01:59.857Z,9.7
2023-04-10T10:03:16.103Z,9.6
2023-04-10T10:04:32.351Z,9.5
2023-04-10T10:05:48.588Z,10.1
2023-04-10T10:07:04.826Z,9.8
2023-04-10T10:08:21.000Z,9.7
2023-04-10T10:09:37.308Z,9.7
2023-04-10T10:10:53.550Z,9.5
2023-04-10T10:12:09.781Z,9.5
2023-04-10T10:13:26.021Z,9.9
2023-04-10T10:14:42.254Z,10
2023-04-10T10:15:57.519Z,9.9
2023-04-10T10:17:13.766Z,9.2
2023-04-10T10:18:29.995Z,9.2
2023-04-10T10:19:46.238Z,9.5
2023-04-10T10:21:02.480Z,8.6
2023-04-10T10:22:18.713Z,8.7
2023-04-10T10:23:33.986Z,8.6
2023-04-10T10:26:06.465Z,8.9
2023-04-10T10:27:22.687Z,9.5
2023-04-10T10:28:38.935Z,8.8
2023-04-10T10:29:55.179Z,9.4
2023-04-10T10:31:11.410Z,9.4
2023-04-10T10:32:27.660Z,9.6
2023-04-10T10:33:43.902Z,8.6
2023-04-10T10:35:00.149Z,9
2023-04-10T10:36:16.373Z,9.1
2023-04-10T10:37:32.621Z,9.7
2023-04-10T10:38:48.851Z,9.5
2023-04-10T10:40:04.115Z,9
2023-04-10T10:41:20.358Z,9.2
2023-04-10T10:42:36.596Z,9
2023-04-10T10:43:52.837Z,9.4
2023-04-10T10:45:09.061Z,9.5
2023-04-10T10:46:25.305Z,8.7
2023-04-10T10:47:41.543Z,8.9
2023-04-10T10:48:57.778Z,9.8
2023-04-10T10:50:14.037Z,8.6
2023-04-10T10:51:30.264Z,9.4
2023-04-10T10:52:46.508Z,9.2
2023-04-10T10:54:02.742Z,9.1
2023-04-10T10:55:18.978Z,8.7
2023-04-10T10:56:34.236Z,8.6
2023-04-10T10:57:50.480Z,8.5
2023-04-10T10:59:06.718Z,8.3
2023-04-10T11:00:22.958Z,9.3
2023-04-10T11:01:39.213Z,9.1
2023-04-10T11:02:55.446Z,8.9
2023-04-10T11:04:11.682Z,8.3
2023-04-10T11:05:27.913Z,8.8
2023-04-10T11:06:44.156Z,7.8
2023-04-10T11:08:00.410Z,7.4
2023-04-10T11:09:16.647Z,7.4
2023-04-10T11:10:32.873Z,7.5
2023-04-10T11:11:49.120Z,7.5
2023-04-10T11:13:04.385Z,7.5
2023-04-10T11:14:20.615Z,7.3
2023-04-10T11:15:36.862Z,6.8
2023-04-10T11:16:53.091Z,7
2023-04-10T11:18:09.339Z,7.1
2023-04-10T11:19:25.579Z,6.9
2023-04-10T11:20:41.809Z,6.7
2023-04-10T11:21:58.060Z,6.7
2023-04-10T11:23:14.291Z,6.6
2023-04-10T11:24:30.532Z,6.3
2023-04-10T11:25:46.767Z,6.3
2023-04-10T11:27:03.012Z,6.6
2023-04-10T11:28:19.260Z,6.6
2023-04-10T11:29:34.506Z,7.2
2023-04-10T11:30:50.745Z,6.6
2023-04-10T11:32:06.979Z,6.2
2023-04-10T11:33:23.000Z,6.8
2023-04-10T11:34:39.466Z,6.8
2023-04-10T11:35:55.699Z,6.7
2023-04-10T11:37:11.955Z,6.4
2023-04-10T11:38:28.187Z,6.8
2023-04-10T11:39:44.429Z,6.2
2023-04-10T11:41:00.663Z,6.5
2023-04-10T11:42:16.906Z,6.9
2023-04-10T11:43:33.145Z,5.8
2023-04-10T11:44:49.391Z,6.2
2023-04-10T11:46:04.633Z,6.5
2023-04-10T11:47:20.878Z,6.2
2023-04-10T11:48:37.122Z,6.6
2023-04-10T11:49:53.366Z,6.3
2023-04-10T11:51:09.598Z,7.1
2023-04-10T11:52:25.843Z,6.3
2023-04-10T11:53:42.072Z,6.7
2023-04-10T11:54:58.310Z,6.6
2023-04-10T11:56:14.548Z,6.1
2023-04-10T11:57:30.804Z,6.4
2023-04-10T11:58:47.050Z,6.3
2023-04-10T12:00:03.290Z,6.5
2023-04-10T12:01:19.527Z,6.5
2023-04-10T12:02:34.763Z,6.8
2023-04-10T12:03:51.016Z,6.2
2023-04-10T12:05:07.257Z,6.9
2023-04-10T12:06:23.492Z,6.5
2023-04-10T12:07:39.723Z,6.5
2023-04-10T12:08:55.979Z,6.4
2023-04-10T12:10:12.207Z,6.6
2023-04-10T12:11:28.457Z,7.2
2023-04-10T12:12:44.687Z,6.8
2023-04-10T12:14:00.929Z,6.6
2023-04-10T12:15:17.160Z,6.7
2023-04-10T12:17:49.637Z,7.6
2023-04-10T12:19:04.910Z,7
2023-04-10T12:20:21.154Z,7
2023-04-10T12:21:37.392Z,6.7
2023-04-10T12:22:53.611Z,6.8
2023-04-10T12:24:09.857Z,6.4
2023-04-10T12:25:26.091Z,6.1
2023-04-10T12:26:42.345Z,6.4
2023-04-10T12:27:58.585Z,6.2
2023-04-10T12:29:14.827Z,6.2
2023-04-10T12:30:31.067Z,6
2023-04-10T12:31:47.318Z,6.6
2023-04-10T12:33:03.531Z,6.4
2023-04-10T12:34:19.785Z,6.5
2023-04-10T12:35:35.034Z,6.3
2023-04-10T12:36:51.283Z,6.3
2023-04-10T12:38:07.512Z,6
2023-04-10T12:39:23.756Z,6.2
2023-04-10T12:40:39.985Z,6.6
2023-04-10T12:41:56.226Z,6.3
2023-04-10T12:43:12.472Z,6.1
2023-04-10T12:44:28.713Z,6.2
2023-04-10T12:45:44.955Z,5.7
2023-04-10T12:47:01.185Z,6.3
2023-04-10T12:48:17.420Z,5.9
2023-04-10T12:49:33.675Z,6.4
2023-04-10T12:50:49.907Z,6.3
2023-04-10T12:52:05.178Z,6.2
2023-04-10T12:53:21.408Z,6.3
2023-04-10T12:54:37.649Z,6.2
2023-04-10T12:55:53.895Z,6.2
2023-04-10T12:57:10.127Z,6.2
2023-04-10T12:58:26.372Z,5.9
2023-04-10T12:59:42.615Z,6.4
2023-04-10T13:00:58.839Z,6
2023-04-10T13:02:15.076Z,6.3
2023-04-10T13:03:31.330Z,5.8
2023-04-10T13:04:47.570Z,6.2
2023-04-10T13:06:03.795Z,6.1
2023-04-10T13:07:20.037Z,6.2
2023-04-10T13:08:35.286Z,6
2023-04-10T13:09:51.546Z,6.3
2023-04-10T13:11:07.766Z,6
2023-04-10T13:12:24.017Z,6.1
2023-04-10T13:13:40.259Z,6.3
2023-04-10T13:14:56.000Z,5.8
2023-04-10T13:16:12.725Z,5.7
2023-04-10T13:17:28.979Z,5.4
2023-04-10T13:18:45.217Z,5.9
2023-04-10T13:20:01.454Z,5.8
2023-04-10T13:21:17.690Z,5.7
2023-04-10T13:22:33.944Z,5.5
2023-04-10T13:23:50.189Z,5.2
2023-04-10T13:25:05.426Z,5.9
2023-04-10T13:26:21.660Z,5.7
2023-04-10T13:27:37.908Z,5.4
2023-04-10T13:28:54.146Z,5.6
2023-04-10T13:30:10.395Z,5.3
2023-04-10T13:31:26.629Z,5.4
2023-04-10T13:32:42.858Z,5.5
2023-04-10T13:33:59.112Z,5.3
2023-04-10T13:35:15.350Z,5.1
2023-04-10T13:36:31.597Z,5.2
2023-04-10T13:37:47.824Z,4.9
2023-04-10T13:39:04.063Z,4.9
2023-04-10T13:40:20.321Z,4.5
2023-04-10T13:41:35.574Z,4.6
2023-04-10T13:42:51.802Z,4.4
2023-04-10T13:44:08.052Z,4.5
2023-04-10T13:45:24.271Z,4.4
2023-04-10T13:46:40.522Z,4.3
2023-04-10T13:47:56.776Z,4.2
2023-04-10T13:49:12.996Z,4.2
2023-04-10T13:50:29.242Z,4.1
2023-04-10T13:51:45.472Z,3.9
2023-04-10T13:53:01.725Z,4.3
2023-04-10T13:54:17.966Z,4.6
2023-04-10T13:55:34.198Z,4.1
2023-04-10T13:56:50.443Z,3.9
2023-04-10T13:58:05.687Z,4.1
2023-04-10T13:59:21.940Z,3.8
2023-04-10T14:00:38.183Z,4
2023-04-10T14:01:54.404Z,3.6
2023-04-10T14:03:10.659Z,3.6
2023-04-10T14:04:26.907Z,3.3
2023-04-10T14:05:43.129Z,3.5
2023-04-10T14:06:59.365Z,3.3
2023-04-10T14:08:15.613Z,3.4
2023-04-10T14:09:31.860Z,3.3
2023-04-10T14:10:48.098Z,3.4
2023-04-10T14:12:04.348Z,3.6
2023-04-10T14:13:20.578Z,3.3
2023-04-10T14:14:35.820Z,3.5
2023-04-10T14:15:52.060Z,3.2
2023-04-10T14:17:08.305Z,3.5
2023-04-10T14:18:24.535Z,3
2023-04-10T14:19:40.776Z,3.4
2023-04-10T14:20:57.015Z,3.1
2023-04-10T14:22:13.274Z,3.3
2023-04-10T14:23:29.522Z,3.2
2023-04-10T14:24:45.744Z,3.2
2023-04-10T14:26:01.980Z,3
2023-04-10T14:27:18.239Z,3.3
2023-04-10T14:28:34.471Z,3.3
2023-04-10T14:29:50.712Z,3.2
2023-04-10T14:31:05.967Z,3.4
2023-04-10T14:32:22.188Z,3.4
2023-04-10T14:33:38.437Z,3.4
2023-04-10T14:34:54.700Z,3.2
2023-04-10T14:36:10.925Z,3.5
2023-04-10T14:37:27.150Z,3.3
2023-04-10T14:38:42.410Z,3.1
2023-04-10T14:39:58.667Z,3.1
2023-04-10T14:41:14.914Z,3.1
2023-04-10T14:42:31.162Z,3.4
2023-04-10T14:43:47.371Z,3.7
2023-04-10T14:45:03.607Z,3.5
2023-04-10T14:46:19.851Z,3.5
2023-04-10T14:47:36.100Z,3.2
2023-04-10T14:48:52.333Z,3.6
2023-04-10T14:50:08.583Z,3.5
2023-04-10T14:51:24.810Z,3.4
2023-04-10T14:52:41.047Z,3.6
2023-04-10T14:53:57.300Z,3.6
2023-04-10T14:55:12.563Z,3.3
2023-04-10T14:56:28.798Z,3.6
2023-04-10T14:57:45.052Z,4
2023-04-10T14:59:01.266Z,3.9
2023-04-10T15:00:17.526Z,3.9
2023-04-10T15:01:33.738Z,3.4
2023-04-10T15:02:49.992Z,3.7
2023-04-10T15:04:06.220Z,3.2
2023-04-10T15:05:22.456Z,3.6
2023-04-10T15:06:38.707Z,3.6
2023-04-10T15:07:54.941Z,3.8
2023-04-10T15:09:11.198Z,3.6
2023-04-10T15:10:27.420Z,3.6
2023-04-10T15:11:42.680Z,3.7
2023-04-10T15:12:58.912Z,3.8
2023-04-10T15:14:15.176Z,3.9
2023-04-10T15:15:31.391Z,3.7
2023-04-10T15:16:47.647Z,4.1
2023-04-10T15:18:03.888Z,4
2023-04-10T15:19:20.142Z,3.7
2023-04-10T15:20:36.349Z,3.9
2023-04-10T15:21:52.605Z,4.1
2023-04-10T15:23:08.829Z,4
2023-04-10T15:24:25.091Z,4.3
2023-04-10T15:25:41.344Z,4
2023-04-10T15:26:57.569Z,3.8
2023-04-10T15:28:12.807Z,3.8
2023-04-10T15:29:29.061Z,4
2023-04-10T15:30:45.300Z,4.4
2023-04-10T15:32:01.532Z,4.1
2023-04-10T15:33:17.784Z,3.9
2023-04-10T15:34:34.034Z,4.3
2023-04-10T15:35:50.241Z,4.1
2023-04-10T15:37:06.516Z,3.8
2023-04-10T15:38:22.756Z,4.2
2023-04-10T15:39:38.970Z,4
2023-04-10T15:40:55.203Z,4
2023-04-10T15:42:11.445Z,4
2023-04-10T15:43:27.711Z,4
2023-04-10T15:44:42.942Z,3.9
2023-04-10T15:45:59.197Z,4.1
2023-04-10T15:47:15.433Z,3.6
2023-04-10T15:48:31.660Z,3.8
2023-04-10T15:49:47.902Z,4
2023-04-10T15:51:04.134Z,4
2023-04-10T15:52:20.389Z,3.7
2023-04-10T15:53:36.618Z,3.6
2023-04-10T15:54:52.875Z,3.6
2023-04-10T15:56:09.116Z,3.9
2023-04-10T15:57:25.360Z,3.6
2023-04-10T15:58:41.596Z,3.7
2023-04-10T15:59:57.828Z,3.4
2023-04-10T16:01:13.073Z,3.6
2023-04-10T16:02:29.316Z,4
2023-04-10T16:03:45.566Z,4.3
2023-04-10T16:05:01.806Z,4.3
2023-04-10T16:06:18.026Z,4.3
2023-04-10T16:07:34.270Z,4.2
2023-04-10T16:08:50.522Z,4.1
2023-04-10T16:10:06.758Z,3.9
2023-04-10T16:11:23.008Z,4.2
2023-04-10T16:12:39.225Z,4.4
2023-04-10T16:13:55.470Z,4.1
2023-04-10T16:15:11.714Z,4.3
2023-04-10T16:16:27.956Z,4.2
2023-04-10T16:17:43.210Z,4.1
2023-04-10T16:18:59.446Z,3.9
2023-04-10T16:20:15.684Z,4
2023-04-10T16:21:31.932Z,3.6
2023-04-10T16:22:48.161Z,3.8
2023-04-10T16:24:04.430Z,4
2023-04-10T16:25:20.648Z,3.6
2023-04-10T16:26:36.903Z,3.8
2023-04-10T16:27:53.125Z,3.8
2023-04-10T16:29:09.385Z,3.8
2023-04-10T16:30:25.609Z,4.3
2023-04-10T16:31:41.844Z,4.6
2023-04-10T16:32:58.096Z,4.3
2023-04-10T16:34:13.336Z,4.5
2023-04-10T16:35:29.603Z,4
2023-04-10T16:36:45.817Z,4.5
2023-04-10T16:38:02.057Z,4.2
2023-04-10T16:39:18.295Z,4.5
2023-04-10T16:40:34.537Z,4.6
2023-04-10T16:41:50.804Z,4.6
2023-04-10T16:43:07.021Z,4.4
2023-04-10T16:44:23.260Z,4.3
2023-04-10T16:46:55.754Z,4.6
2023-04-10T16:48:11.994Z,4.6
2023-04-10T16:49:28.232Z,4.1
2023-04-10T16:50:43.468Z,4.4
2023-04-10T16:51:59.733Z,4.1
2023-04-10T16:53:15.956Z,4.8
2023-04-10T16:54:32.187Z,5.3
2023-04-10T16:55:48.000Z,5.1
2023-04-10T16:57:04.694Z,5.3
2023-04-10T16:58:20.934Z,5.4
2023-04-10T16:59:37.140Z,4.7
2023-04-10T17:00:53.409Z,4.7
2023-04-10T17:02:09.643Z,4.2
2023-04-10T17:03:25.882Z,4.5
2023-04-10T17:04:42.129Z,4.3
2023-04-10T17:05:58.375Z,4.7
2023-04-10T17:07:13.624Z,4.9
2023-04-10T17:08:29.833Z,5.5
2023-04-10T17:09:46.109Z,5.6
2023-04-10T17:11:02.323Z,5.4
2023-04-10T17:12:18.552Z,5.7
2023-04-10T17:13:34.804Z,5.9
2023-04-10T17:14:51.034Z,5.4
2023-04-10T17:16:07.286Z,5.3
2023-04-10T17:17:23.538Z,4.6
2023-04-10T17:18:39.754Z,4.9
2023-04-10T17:19:55.999Z,4.5